KSBSKAPA

Guest
Details From KSBS - Steamboat Springs Bob Adams Fld
To KAPA - Centennial
Flight Number -
Tags Generated
Created
Modified
Stats Distance 109 nm / 202 km
Max Altitude 0 ft / 0 m
Waypoints 2
Social Downloads 1
Likes 0
Share VATSIM

Download

Looking for another format? Having issues loading an existing format? Contact us
Advertisement - Login to hide

Notes

Generated

Route

KSBS KAPA

ID Type Via Altitude Latitude Longitude Leg Dist Tot Dist Heading (true) Name
O KSBS APT - 0 ft / 0 m 40.52169˚ -106.86995˚ - 0 nm - STEAMBOAT SPRINGS BOB ADAMS FLD
O KAPA APT - 0 ft / 0 m 39.57290˚ -104.84822˚ 109 nm 109 nm 121° / 122° CENTENNIAL

Altitude Profile

Advertisement - Login to hide

KSBS

Details ICAO KSBS (SBS)
Name STEAMBOAT SPRINGS BOB ADAMS FLD
Region United States
Timezone America/Denver (UTC-7.0)
Stats Elevation 6,878 ft / 2,096 m (AMSL)
Location 40.516258° -106.866302°
Runways 1
Magnetic Variation 9.236° E

METAR

KSBS 111912Z AUTO 00000KT 10SM CLR M01/M11 A3052 RMK AO1 T10081108

Decode

TAF

Not found

Departure Runways

ID Width Length Bearing (true) Bearing (mag) Surface Threshold Offset Overrun Length
14 100 ft / 30 m 4,454 ft / 1,358 m 152.97° 143.73° Asphalt 0 ft / 0 m 0 ft / 0 m
32 100 ft / 30 m 4,454 ft / 1,358 m 332.97° 323.73° Asphalt 600 ft / 183 m 0 ft / 0 m

KAPA

Details ICAO KAPA (APA)
Name CENTENNIAL
Region United States
Timezone America/Denver (UTC-7.0)
Stats Elevation 5,883 ft / 1,793 m (AMSL)
Location 39.570116° -104.848132°
Runways 3
Magnetic Variation 8.129° E

METAR

KAPA 111853Z 03007KT 10SM FEW220 14/M16 A3033 RMK AO2 SLP257 T01441161

Decode

TAF

TAF KAPA 111720Z 1118/1218 09006KT P6SM FEW220 FM112000 05010KT P6SM FEW220 FM120300 17007KT P6SM FEW120 SCT200 FM120500 20006KT P6SM FEW200 FM121700 24006KT P6SM FEW220

Decode

Destination Runways

ID Width Length Bearing (true) Bearing (mag) Surface Threshold Offset Overrun Length
10 75 ft / 23 m 4,791 ft / 1,460 m 111.02° 102.89° Asphalt 0 ft / 0 m 0 ft / 0 m
17L 100 ft / 30 m 10,017 ft / 3,053 m 177.97° 169.84° Asphalt 0 ft / 0 m 0 ft / 0 m
17R 77 ft / 23 m 7,014 ft / 2,138 m 177.96° 169.83° Asphalt 0 ft / 0 m 0 ft / 0 m
28 75 ft / 23 m 4,791 ft / 1,460 m 291.03° 282.90° Asphalt 0 ft / 0 m 0 ft / 0 m
35L 77 ft / 23 m 7,014 ft / 2,138 m 357.96° 349.83° Asphalt 0 ft / 0 m 0 ft / 0 m
35R 100 ft / 30 m 10,017 ft / 3,053 m 357.97° 349.84° Asphalt 0 ft / 0 m 0 ft / 0 m

Approach Navaids

Runway Type Ident Frequency Range Bearing (true) Bearing (mag) Slope Elevation
35R Localiser IAPA 111.30 MHz 18 nm / 33 km 357.97° 349.84° - 5,771 ft / 1,759 m (AMSL)
35R Glidescope IAPA 111.30 MHz 10 nm / 19 km 357.97° 349.84° 3.00° 5,862 ft / 1,787 m (AMSL)
35R DME IAPA 111.30 MHz 18 nm / 33 km - - - 5,773 ft / 1,760 m (AMSL)

Popular Alternatives